createdAt,value
2018-04-28T00:00:36.115Z,53.62
2018-04-28T00:03:04.655Z,53.70
2018-04-28T00:05:32.920Z,53.94
2018-04-28T00:08:01.248Z,54.25
2018-04-28T00:10:30.393Z,54.40
2018-04-28T00:12:58.682Z,54.54
2018-04-28T00:15:27.003Z,54.86
2018-04-28T00:17:56.138Z,55.13
2018-04-28T00:20:24.463Z,55.26
2018-04-28T00:22:55.602Z,55.33
2018-04-28T00:25:29.677Z,55.44
2018-04-28T00:31:13.283Z,55.83
2018-04-28T00:33:43.104Z,55.99
2018-04-28T00:36:22.116Z,56.27
2018-04-28T00:38:55.816Z,56.20
2018-04-28T00:41:24.094Z,56.21
2018-04-28T00:43:53.947Z,56.60
2018-04-28T00:46:29.082Z,56.89
2018-04-28T00:48:59.039Z,57.27
2018-04-28T00:51:30.107Z,57.28
2018-04-28T01:00:34.769Z,57.98
2018-04-28T01:03:03.919Z,58.00
2018-04-28T01:05:48.155Z,58.27
2018-04-28T01:08:19.066Z,58.41
2018-04-28T01:10:49.849Z,58.58
2018-04-28T01:13:18.119Z,58.71
2018-04-28T01:15:46.602Z,58.86
2018-04-28T01:18:16.387Z,59.10
2018-04-28T01:20:46.318Z,58.93
2018-04-28T01:23:20.919Z,58.89
2018-04-28T01:25:51.166Z,58.98
2018-04-28T01:28:30.191Z,58.85
2018-04-28T01:31:02.056Z,59.08
2018-04-28T01:33:53.050Z,59.08
2018-04-28T01:39:37.024Z,59.41
2018-04-28T01:45:29.008Z,59.40
2018-04-28T01:48:02.869Z,59.67
2018-04-28T01:50:42.786Z,59.77
2018-04-28T01:53:11.218Z,59.88
2018-04-28T01:55:41.331Z,59.96
2018-04-28T02:01:19.583Z,59.90
2018-04-28T02:03:47.870Z,59.76
2018-04-28T02:06:23.598Z,59.96
2018-04-28T02:08:55.206Z,59.93
2018-04-28T02:11:30.932Z,59.86
2018-04-28T02:13:59.993Z,59.91
2018-04-28T02:16:32.081Z,60.05
2018-04-28T02:19:12.307Z,60.36
2018-04-28T02:24:47.903Z,60.46
2018-04-28T02:27:27.724Z,60.57
2018-04-28T02:30:04.716Z,60.68
2018-04-28T02:32:32.999Z,60.92
2018-04-28T02:35:07.131Z,61.07
2018-04-28T02:37:41.143Z,61.17
2018-04-28T02:40:12.011Z,60.96
2018-04-28T02:42:43.925Z,60.62
2018-04-28T02:45:29.755Z,60.30
2018-04-28T02:48:05.448Z,60.29
2018-04-28T02:50:35.773Z,60.04
2018-04-28T02:53:15.712Z,59.79
2018-04-28T02:55:51.691Z,60.05
2018-04-28T02:58:23.603Z,60.06
2018-04-28T03:00:57.829Z,60.53
2018-04-28T03:03:28.651Z,60.31
2018-04-28T03:05:59.643Z,60.13
2018-04-28T03:08:46.511Z,60.28
2018-04-28T03:11:17.348Z,60.60
2018-04-28T03:13:47.392Z,60.27
2018-04-28T03:16:21.695Z,59.65
2018-04-28T03:18:49.989Z,59.76
2018-04-28T03:21:18.270Z,59.57
2018-04-28T03:23:47.370Z,59.45
2018-04-28T03:26:23.842Z,59.37
2018-04-28T03:28:52.394Z,59.15
2018-04-28T03:31:37.573Z,59.42
2018-04-28T03:37:30.427Z,60.51
2018-04-28T03:43:07.652Z,62.00
2018-04-28T03:45:36.671Z,62.52
2018-04-28T03:48:11.711Z,62.66
2018-04-28T03:50:40.903Z,63.35
2018-04-28T03:53:24.271Z,63.89
2018-04-28T03:55:54.992Z,64.80
2018-04-28T03:58:34.994Z,65.53
2018-04-28T04:01:15.237Z,66.08
2018-04-28T04:03:55.305Z,66.44
2018-04-28T04:09:21.055Z,66.49
2018-04-28T04:12:13.919Z,66.42
2018-04-28T04:14:57.947Z,66.41
2018-04-28T04:17:38.802Z,66.36
2018-04-28T04:23:15.407Z,66.89
2018-04-28T04:26:03.197Z,67.05
2018-04-28T04:28:37.531Z,67.53
2018-04-28T04:31:14.455Z,67.44
2018-04-28T04:36:57.705Z,67.32
2018-04-28T04:39:29.928Z,67.09
2018-04-28T04:45:15.568Z,66.56
2018-04-28T04:47:55.615Z,66.18
2018-04-28T04:50:38.365Z,65.73
2018-04-28T04:56:21.287Z,65.57
2018-04-28T05:02:10.105Z,65.60
2018-04-28T05:04:50.290Z,65.52
2018-04-28T05:07:37.277Z,65.51
2018-04-28T05:10:17.447Z,65.17
2018-04-28T05:15:49.840Z,64.70
2018-04-28T05:18:36.996Z,64.96
2018-04-28T05:21:11.783Z,64.91
2018-04-28T05:23:46.642Z,65.05
2018-04-28T05:29:39.400Z,64.85
2018-04-28T05:32:19.574Z,65.04
2018-04-28T05:35:09.328Z,64.89
2018-04-28T05:37:47.204Z,64.58
2018-04-28T05:40:21.890Z,64.68
2018-04-28T05:43:02.010Z,64.67
2018-04-28T05:48:40.241Z,64.22
2018-04-28T05:51:31.232Z,64.35
2018-04-28T05:54:20.329Z,64.02
2018-04-28T05:59:57.973Z,63.72
2018-04-28T06:05:35.099Z,63.90
2018-04-28T06:11:27.819Z,62.63
2018-04-28T06:14:07.844Z,63.23
2018-04-28T06:19:59.410Z,62.40
2018-04-28T06:22:27.608Z,62.17
2018-04-28T06:24:56.132Z,62.39
2018-04-28T06:27:24.432Z,61.96
2018-04-28T06:29:52.716Z,61.65
2018-04-28T06:32:21.008Z,61.41
2018-04-28T06:34:49.281Z,61.77
2018-04-28T06:37:17.570Z,61.75
2018-04-28T06:39:45.836Z,61.14
2018-04-28T06:42:14.274Z,61.93
2018-04-28T06:44:42.685Z,61.87
2018-04-28T06:47:11.276Z,61.62
2018-04-28T06:49:39.697Z,61.62
2018-04-28T06:52:07.959Z,61.48
2018-04-28T06:54:36.220Z,61.18
2018-04-28T06:57:04.525Z,61.62
2018-04-28T06:59:32.890Z,60.85
2018-04-28T07:02:01.195Z,60.17
2018-04-28T07:04:29.554Z,60.50
2018-04-28T07:06:57.779Z,60.38
2018-04-28T07:09:26.057Z,60.58
2018-04-28T07:11:54.339Z,60.24
2018-04-28T07:14:23.327Z,60.03
2018-04-28T07:16:51.623Z,60.48
2018-04-28T07:19:20.043Z,60.10
2018-04-28T07:21:48.623Z,60.26
2018-04-28T07:24:16.905Z,59.75
2018-04-28T07:26:45.431Z,59.31
2018-04-28T07:29:13.762Z,59.47
2018-04-28T07:31:42.799Z,59.51
2018-04-28T07:34:11.062Z,58.94
2018-04-28T07:36:39.348Z,58.81
2018-04-28T07:39:07.644Z,58.61
2018-04-28T07:41:35.990Z,58.46
2018-04-28T07:44:04.297Z,58.75
2018-04-28T07:46:32.594Z,58.72
2018-04-28T07:49:01.075Z,58.10
2018-04-28T07:51:29.482Z,58.35
2018-04-28T07:53:57.780Z,58.30
2018-04-28T07:56:26.269Z,58.50
2018-04-28T07:58:54.802Z,58.17
2018-04-28T08:01:23.036Z,58.72
2018-04-28T08:03:51.346Z,58.10
2018-04-28T08:06:19.647Z,57.38
2018-04-28T08:08:47.933Z,56.27
2018-04-28T08:11:16.370Z,56.39
2018-04-28T08:13:44.655Z,55.80
2018-04-28T08:16:12.923Z,55.14
2018-04-28T08:18:41.436Z,54.85
2018-04-28T08:21:09.730Z,55.72
2018-04-28T08:23:37.991Z,55.55
2018-04-28T08:26:06.288Z,54.65
2018-04-28T08:28:34.875Z,53.70
2018-04-28T08:31:03.492Z,54.01
2018-04-28T08:33:31.790Z,54.47
2018-04-28T08:36:00.070Z,53.05
2018-04-28T08:38:28.367Z,53.52
2018-04-28T08:40:56.643Z,53.95
2018-04-28T08:43:24.942Z,54.11
2018-04-28T08:45:53.390Z,53.44
2018-04-28T08:48:21.887Z,52.28
2018-04-28T08:50:50.186Z,52.45
2018-04-28T08:53:18.625Z,51.86
2018-04-28T08:55:46.907Z,51.93
2018-04-28T08:58:15.195Z,52.17
2018-04-28T09:01:02.150Z,51.54
2018-04-28T09:03:30.412Z,52.03
2018-04-28T09:05:58.694Z,51.71
2018-04-28T09:08:26.973Z,50.84
2018-04-28T09:10:55.401Z,50.82
2018-04-28T09:13:23.665Z,50.96
2018-04-28T09:15:51.963Z,49.01
2018-04-28T09:18:20.233Z,48.34
2018-04-28T09:20:48.538Z,48.31
2018-04-28T09:23:16.815Z,46.21
2018-04-28T09:25:45.113Z,46.09
2018-04-28T09:28:13.376Z,45.78
2018-04-28T09:30:41.659Z,46.99
2018-04-28T09:33:09.939Z,46.79
2018-04-28T09:35:38.476Z,45.71
2018-04-28T09:38:06.839Z,45.18
2018-04-28T09:40:35.067Z,44.46
2018-04-28T09:43:03.379Z,44.41
2018-04-28T09:45:31.638Z,45.87
2018-04-28T09:47:59.942Z,45.60
2018-04-28T09:50:28.220Z,46.20
2018-04-28T09:52:56.480Z,46.54
2018-04-28T09:55:24.750Z,45.53
2018-04-28T09:58:04.700Z,44.56
2018-04-28T10:03:36.641Z,44.58
2018-04-28T10:06:04.929Z,44.95
2018-04-28T10:08:34.252Z,45.32
2018-04-28T10:11:02.547Z,45.09
2018-04-28T10:13:30.947Z,44.52
2018-04-28T10:15:59.273Z,44.71
2018-04-28T10:18:27.654Z,44.68
2018-04-28T10:20:55.925Z,44.88
2018-04-28T10:23:24.218Z,45.45
2018-04-28T10:25:52.486Z,45.55
2018-04-28T10:28:20.773Z,44.82
2018-04-28T10:30:49.113Z,45.37
2018-04-28T10:33:17.553Z,45.61
2018-04-28T10:35:45.828Z,45.35
2018-04-28T10:38:14.203Z,44.83
2018-04-28T10:40:42.497Z,44.92
2018-04-28T10:43:10.758Z,44.95
2018-04-28T10:45:39.076Z,44.56
2018-04-28T10:48:07.831Z,43.38
2018-04-28T10:50:36.297Z,41.95
2018-04-28T10:53:04.561Z,41.39
2018-04-28T10:55:32.856Z,40.93
2018-04-28T10:58:01.130Z,42.62
2018-04-28T11:00:29.415Z,41.46
2018-04-28T11:02:57.688Z,41.05
2018-04-28T11:05:26.069Z,41.30
2018-04-28T11:07:54.505Z,41.02
2018-04-28T11:10:22.773Z,42.46
2018-04-28T11:12:51.156Z,43.05
2018-04-28T11:15:19.793Z,42.88
2018-04-28T11:17:48.035Z,41.84
2018-04-28T11:20:16.348Z,40.85
2018-04-28T11:22:44.633Z,41.09
2018-04-28T11:25:12.887Z,41.18
2018-04-28T11:27:41.253Z,41.14
2018-04-28T11:30:09.532Z,38.75
2018-04-28T11:32:37.846Z,40.51
2018-04-28T11:35:07.342Z,40.45
2018-04-28T11:37:35.642Z,40.60
2018-04-28T11:40:08.018Z,41.68
2018-04-28T11:42:36.330Z,40.98
2018-04-28T11:45:07.847Z,40.10
2018-04-28T11:47:36.157Z,40.47
2018-04-28T11:50:07.977Z,40.71
2018-04-28T11:52:36.276Z,40.84
2018-04-28T11:55:08.391Z,40.33
2018-04-28T11:57:36.676Z,39.90
2018-04-28T12:00:07.886Z,40.29
2018-04-28T12:02:36.239Z,40.64
2018-04-28T12:05:08.374Z,41.05
2018-04-28T12:07:36.724Z,41.25
2018-04-28T12:10:06.829Z,41.31
2018-04-28T12:12:35.103Z,40.06
2018-04-28T12:15:06.540Z,38.91
2018-04-28T12:17:34.886Z,39.44
2018-04-28T12:20:06.498Z,40.08
2018-04-28T12:22:34.755Z,40.50
2018-04-28T12:25:05.552Z,39.99
2018-04-28T12:27:33.840Z,38.86
2018-04-28T12:30:07.421Z,39.30
2018-04-28T12:32:35.714Z,39.72
2018-04-28T12:35:07.307Z,40.97
2018-04-28T12:37:35.598Z,40.90
2018-04-28T12:40:05.548Z,41.20
2018-04-28T12:42:33.830Z,41.16
2018-04-28T12:45:05.390Z,40.00
2018-04-28T12:47:33.657Z,39.86
2018-04-28T12:50:04.967Z,39.27
2018-04-28T12:52:33.239Z,39.42
2018-04-28T12:55:08.090Z,38.93
2018-04-28T12:57:36.359Z,39.11
2018-04-28T13:00:05.585Z,40.04
2018-04-28T13:02:33.879Z,39.90
2018-04-28T13:05:05.826Z,40.51
2018-04-28T13:07:34.195Z,40.71
2018-04-28T13:10:08.248Z,40.89
2018-04-28T13:12:36.535Z,41.04
2018-04-28T13:15:05.870Z,40.76
2018-04-28T13:17:34.316Z,40.51
2018-04-28T13:20:05.855Z,40.16
2018-04-28T13:22:34.195Z,39.39
2018-04-28T13:25:06.026Z,39.16
2018-04-28T13:27:34.275Z,39.12
2018-04-28T13:30:06.180Z,37.98
2018-04-28T13:32:34.459Z,38.27
2018-04-28T13:35:05.880Z,37.67
2018-04-28T13:37:34.176Z,38.39
2018-04-28T13:40:05.578Z,37.62
2018-04-28T13:42:33.895Z,37.91
2018-04-28T13:45:05.299Z,37.56
2018-04-28T13:47:33.564Z,37.73
2018-04-28T13:50:05.055Z,38.48
2018-04-28T13:52:33.378Z,39.04
2018-04-28T13:55:08.176Z,38.31
2018-04-28T13:57:36.591Z,37.64
2018-04-28T14:00:06.556Z,37.38
2018-04-28T14:02:34.812Z,37.04
2018-04-28T14:05:06.491Z,37.39
2018-04-28T14:07:34.957Z,38.07
2018-04-28T14:10:06.484Z,36.67
2018-04-28T14:12:34.759Z,36.84
2018-04-28T14:15:06.526Z,36.16
2018-04-28T14:17:34.794Z,37.03
2018-04-28T14:20:06.140Z,37.24
2018-04-28T14:22:34.405Z,37.85
2018-04-28T14:25:06.088Z,37.65
2018-04-28T14:27:34.383Z,37.46
2018-04-28T14:30:06.305Z,37.73
2018-04-28T14:32:34.984Z,37.89
2018-04-28T14:35:07.768Z,37.18
2018-04-28T14:37:36.056Z,36.54
2018-04-28T14:40:07.817Z,37.90
2018-04-28T14:42:41.735Z,36.75
2018-04-28T14:45:10.036Z,35.81
2018-04-28T14:47:38.304Z,36.22
2018-04-28T14:50:06.615Z,37.33
2018-04-28T14:52:34.895Z,37.50
2018-04-28T14:55:06.855Z,38.50
2018-04-28T14:57:35.168Z,37.34
2018-04-28T15:00:07.308Z,37.83
2018-04-28T15:02:35.612Z,38.48
2018-04-28T15:05:07.538Z,38.31
2018-04-28T15:07:35.867Z,37.70
2018-04-28T15:10:08.936Z,38.29
2018-04-28T15:12:37.232Z,37.89
2018-04-28T15:15:06.331Z,37.59
2018-04-28T15:17:34.915Z,37.69
2018-04-28T15:20:06.144Z,37.84
2018-04-28T15:22:34.413Z,37.08
2018-04-28T15:25:07.350Z,37.38
2018-04-28T15:27:35.664Z,37.43
2018-04-28T15:30:08.011Z,37.82
2018-04-28T15:32:36.307Z,38.48
2018-04-28T15:35:07.499Z,38.17
2018-04-28T15:37:35.811Z,38.86
2018-04-28T15:40:07.230Z,38.87
2018-04-28T15:42:35.537Z,38.83
2018-04-28T15:45:06.048Z,39.28
2018-04-28T15:47:34.350Z,38.88
2018-04-28T15:50:06.182Z,39.29
2018-04-28T15:52:34.745Z,39.07
2018-04-28T15:55:06.268Z,39.28
2018-04-28T15:57:34.535Z,39.40
2018-04-28T16:00:08.596Z,39.56
2018-04-28T16:02:36.959Z,40.04
2018-04-28T16:05:06.042Z,39.72
2018-04-28T16:07:34.334Z,39.91
2018-04-28T16:10:07.261Z,39.83
2018-04-28T16:12:35.539Z,39.88
2018-04-28T16:15:06.972Z,40.40
2018-04-28T16:17:35.246Z,40.95
2018-04-28T16:20:06.882Z,40.66
2018-04-28T16:22:35.131Z,39.80
2018-04-28T16:25:06.891Z,40.93
2018-04-28T16:27:35.431Z,40.53
2018-04-28T16:30:08.693Z,40.46
2018-04-28T16:32:36.987Z,40.37
2018-04-28T16:35:06.287Z,40.42
2018-04-28T16:37:34.804Z,40.34
2018-04-28T16:40:06.082Z,40.36
2018-04-28T16:42:34.751Z,41.12
2018-04-28T16:45:06.138Z,40.67
2018-04-28T16:47:34.960Z,40.84
2018-04-28T16:50:06.938Z,40.96
2018-04-28T16:52:35.238Z,40.31
2018-04-28T16:55:06.834Z,40.97
2018-04-28T16:57:35.118Z,40.43
2018-04-28T17:00:07.034Z,42.33
2018-04-28T17:02:35.363Z,40.71
2018-04-28T17:05:07.505Z,41.62
2018-04-28T17:07:35.787Z,40.99
2018-04-28T17:10:06.178Z,42.72
2018-04-28T17:12:34.509Z,41.45
2018-04-28T17:15:09.399Z,41.38
2018-04-28T17:18:00.646Z,42.15
2018-04-28T17:20:28.913Z,42.43
2018-04-28T17:22:57.172Z,42.62
2018-04-28T17:25:25.452Z,42.33
2018-04-28T17:27:53.780Z,42.84
2018-04-28T17:30:22.057Z,43.09
2018-04-28T17:32:50.327Z,43.54
2018-04-28T17:35:18.749Z,42.71
2018-04-28T17:37:47.057Z,43.85
2018-04-28T17:40:15.347Z,43.29
2018-04-28T17:42:43.687Z,42.53
2018-04-28T17:45:12.279Z,43.93
2018-04-28T17:47:40.714Z,43.55
2018-04-28T17:50:08.989Z,44.05
2018-04-28T17:52:37.270Z,43.12
2018-04-28T17:55:06.404Z,43.84
2018-04-28T17:57:34.698Z,44.36
2018-04-28T18:00:06.008Z,45.59
2018-04-28T18:02:35.048Z,46.07
2018-04-28T18:05:06.412Z,46.14
2018-04-28T18:07:35.112Z,45.32
2018-04-28T18:10:06.255Z,46.58
2018-04-28T18:12:34.638Z,46.49
2018-04-28T18:15:06.092Z,46.40
2018-04-28T18:17:34.401Z,47.43
2018-04-28T18:20:09.477Z,47.71
2018-04-28T18:22:37.829Z,47.38
2018-04-28T18:25:06.852Z,46.15
2018-04-28T18:27:35.164Z,44.38
2018-04-28T18:30:06.348Z,44.26
2018-04-28T18:32:34.625Z,44.19
2018-04-28T18:35:07.364Z,44.33
2018-04-28T18:37:36.328Z,45.24
2018-04-28T18:40:07.622Z,45.33
2018-04-28T18:42:36.013Z,47.01
2018-04-28T18:45:07.962Z,45.55
2018-04-28T18:47:36.384Z,45.84
2018-04-28T18:50:08.402Z,46.24
2018-04-28T18:52:37.671Z,46.24
2018-04-28T18:55:07.226Z,46.29
2018-04-28T18:57:35.692Z,46.95
2018-04-28T19:00:08.792Z,47.50
2018-04-28T19:02:37.229Z,48.32
2018-04-28T19:05:06.626Z,49.06
2018-04-28T19:07:35.120Z,49.04
2018-04-28T19:10:07.220Z,48.41
2018-04-28T19:12:35.649Z,47.59
2018-04-28T19:15:07.510Z,47.26
2018-04-28T19:17:36.102Z,47.41
2018-04-28T19:20:08.229Z,47.78
2018-04-28T19:22:36.932Z,48.01
2018-04-28T19:25:06.918Z,47.53
2018-04-28T19:27:35.253Z,47.88
2018-04-28T19:30:07.672Z,47.60
2018-04-28T19:32:36.016Z,46.85
2018-04-28T19:35:07.930Z,47.43
2018-04-28T19:37:36.244Z,47.72
2018-04-28T19:40:11.837Z,47.16
2018-04-28T19:42:40.318Z,47.25
2018-04-28T19:45:12.691Z,47.38
2018-04-28T19:47:41.071Z,48.24
2018-04-28T19:50:14.127Z,49.14
2018-04-28T19:52:42.595Z,49.53
2018-04-28T19:55:10.993Z,49.64
2018-04-28T19:57:39.287Z,49.59
2018-04-28T20:00:08.955Z,49.64
2018-04-28T20:02:37.748Z,49.54
2018-04-28T20:05:06.810Z,49.54
2018-04-28T20:07:35.170Z,49.20
2018-04-28T20:10:08.048Z,49.50
2018-04-28T20:12:36.656Z,49.12
2018-04-28T20:15:12.339Z,49.20
2018-04-28T20:17:40.739Z,49.50
2018-04-28T20:20:10.124Z,49.72
2018-04-28T20:22:50.126Z,49.93
2018-04-28T20:25:22.500Z,49.99
2018-04-28T20:27:50.882Z,50.06
2018-04-28T20:30:19.206Z,49.95
2018-04-28T20:32:47.511Z,50.02
2018-04-28T20:35:15.850Z,50.08
2018-04-28T20:37:44.057Z,50.08
2018-04-28T20:40:12.451Z,49.94
2018-04-28T20:42:40.789Z,50.15
2018-04-28T20:45:09.636Z,50.47
2018-04-28T20:47:37.949Z,50.64
2018-04-28T20:50:06.467Z,51.04
2018-04-28T20:52:34.732Z,51.64
2018-04-28T20:55:05.744Z,52.28
2018-04-28T20:57:34.058Z,52.83
2018-04-28T21:00:05.829Z,53.54
2018-04-28T21:02:34.127Z,53.94
2018-04-28T21:05:05.642Z,53.89
2018-04-28T21:07:33.907Z,54.12
2018-04-28T21:10:08.860Z,54.77
2018-04-28T21:12:37.230Z,54.77
2018-04-28T21:15:05.643Z,54.81
2018-04-28T21:17:33.919Z,54.99
2018-04-28T21:20:05.470Z,55.24
2018-04-28T21:22:33.747Z,55.42
2018-04-28T21:25:06.738Z,55.31
2018-04-28T21:27:35.007Z,55.55
2018-04-28T21:30:06.778Z,55.67
2018-04-28T21:32:35.081Z,55.76
2018-04-28T21:35:06.600Z,56.14
2018-04-28T21:37:34.866Z,55.67
2018-04-28T21:40:06.329Z,55.92
2018-04-28T21:42:34.798Z,55.80
2018-04-28T21:45:06.195Z,55.98
2018-04-28T21:47:34.464Z,56.08
2018-04-28T21:50:05.983Z,56.41
2018-04-28T21:52:34.216Z,56.72
2018-04-28T21:55:05.590Z,56.44
2018-04-28T21:57:33.905Z,56.69
2018-04-28T22:00:05.234Z,56.98
2018-04-28T22:02:33.495Z,57.07
2018-04-28T22:05:04.984Z,57.00
2018-04-28T22:07:33.540Z,57.98
2018-04-28T22:10:05.296Z,58.27
2018-04-28T22:12:33.590Z,57.76
2018-04-28T22:15:05.431Z,58.52
2018-04-28T22:17:33.826Z,58.84
2018-04-28T22:20:06.060Z,58.91
2018-04-28T22:22:34.335Z,59.29
2018-04-28T22:25:05.851Z,59.07
2018-04-28T22:27:34.144Z,59.56
2018-04-28T22:30:08.799Z,60.10
2018-04-28T22:32:37.398Z,60.08
2018-04-28T22:35:07.046Z,60.16
2018-04-28T22:37:35.324Z,59.97
2018-04-28T22:40:06.640Z,59.87
2018-04-28T22:42:34.924Z,60.09
2018-04-28T22:45:06.267Z,60.23
2018-04-28T22:47:34.604Z,60.15
2018-04-28T22:50:09.718Z,60.29
2018-04-28T22:52:37.991Z,60.33
2018-04-28T22:55:07.106Z,60.52
2018-04-28T22:57:35.381Z,59.92
2018-04-28T23:00:06.652Z,60.64
2018-04-28T23:02:34.932Z,61.07
2018-04-28T23:05:05.538Z,61.69
2018-04-28T23:07:33.833Z,61.74
2018-04-28T23:10:05.566Z,61.45
2018-04-28T23:12:33.852Z,61.34
2018-04-28T23:15:07.080Z,61.39
2018-04-28T23:17:35.367Z,61.57
2018-04-28T23:20:07.279Z,61.47
2018-04-28T23:22:35.554Z,61.48
2018-04-28T23:25:06.961Z,61.52
2018-04-28T23:27:35.256Z,61.54
2018-04-28T23:30:06.962Z,62.15
2018-04-28T23:32:35.279Z,62.16
2018-04-28T23:35:06.585Z,62.41
2018-04-28T23:37:34.875Z,62.58
2018-04-28T23:40:06.918Z,63.40
2018-04-28T23:42:35.239Z,63.33
2018-04-28T23:45:06.639Z,63.92
2018-04-28T23:47:34.939Z,64.58
2018-04-28T23:50:06.441Z,64.14
2018-04-28T23:52:34.955Z,64.60
2018-04-28T23:55:06.495Z,64.78
2018-04-28T23:57:34.763Z,64.60
